Time;durP1;ratioP1;P1;durP2;ratioP2;P2;SDS_P1;SDS_P2;PMS_P1;PMS_P2;Temp;Humidity;BMP_temperature;BMP_pressure;BME280_temperature;BME280_humidity;BME280_pressure;Samples;Min_cycle;Max_cycle;Signal;HPM_P1;HPM_P2
2022/12/01 00:00:11;;;;;;;35.95;13.43;;;5.90;99.90;;;;;;5054727;28;20044;-68
2022/12/01 00:02:38;;;;;;;34.50;12.00;;;5.90;99.90;;;;;;5036998;28;20136;-69
2022/12/01 00:05:05;;;;;;;26.95;11.52;;;5.90;99.90;;;;;;5054952;28;20495;-68
2022/12/01 00:07:31;;;;;;;29.17;11.55;;;5.90;99.90;;;;;;5054641;28;20395;-68
2022/12/01 00:12:43;;;;;;;32.08;11.93;;;5.90;99.90;;;;;;5054386;28;20056;-68
2022/12/01 00:15:10;;;;;;;47.13;12.98;;;5.90;99.90;;;;;;5054359;28;20136;-69
2022/12/01 00:17:37;;;;;;;33.55;11.82;;;5.90;99.90;;;;;;5054424;28;20040;-69
2022/12/01 00:20:05;;;;;;;33.05;11.85;;;5.80;99.90;;;;;;5036772;28;20119;-68
2022/12/01 00:22:31;;;;;;;29.23;12.63;;;5.80;99.90;;;;;;5054330;28;20076;-68
2022/12/01 00:24:58;;;;;;;33.83;12.55;;;5.80;99.90;;;;;;5036598;28;20044;-68
2022/12/01 00:27:25;;;;;;;30.25;11.43;;;5.80;99.90;;;;;;5054195;28;20041;-68
2022/12/01 00:29:51;;;;;;;35.17;13.55;;;5.80;99.90;;;;;;5036659;28;20036;-68
2022/12/01 00:32:18;;;;;;;30.77;12.32;;;5.80;99.90;;;;;;5054175;28;20396;-69
2022/12/01 00:34:44;;;;;;;35.38;12.48;;;5.80;99.90;;;;;;5053966;28;20038;-69
2022/12/01 00:37:11;;;;;;;26.95;11.73;;;5.80;99.90;;;;;;5054063;28;20044;-68
2022/12/01 00:39:37;;;;;;;32.03;12.48;;;5.80;99.90;;;;;;5053955;28;20036;-68
2022/12/01 00:42:03;;;;;;;33.60;12.73;;;5.80;99.90;;;;;;5036490;28;20071;-68
2022/12/01 00:44:30;;;;;;;34.28;11.32;;;5.80;99.90;;;;;;5054196;28;20519;-68
2022/12/01 00:46:56;;;;;;;32.00;11.80;;;5.80;99.90;;;;;;5053823;28;20048;-68
2022/12/01 00:49:22;;;;;;;30.90;10.98;;;5.80;99.90;;;;;;5053828;28;20066;-68
2022/12/01 00:51:49;;;;;;;31.20;12.38;;;5.80;99.90;;;;;;5036046;28;20583;-68
2022/12/01 00:54:15;;;;;;;33.60;12.02;;;5.80;99.90;;;;;;5053667;28;20128;-69
2022/12/01 00:56:41;;;;;;;36.92;13.00;;;5.80;99.90;;;;;;5053640;28;20040;-68
2022/12/01 00:59:08;;;;;;;28.75;11.27;;;5.70;99.90;;;;;;5035525;28;20115;-69
2022/12/01 01:01:34;;;;;;;35.15;12.52;;;5.80;99.90;;;;;;5053834;28;20098;-69
2022/12/01 01:04:00;;;;;;;36.05;12.18;;;5.80;99.90;;;;;;5036155;28;20499;-70
2022/12/01 01:06:26;;;;;;;40.75;12.50;;;5.80;99.90;;;;;;5053523;28;20369;-68
2022/12/01 01:08:53;;;;;;;36.28;11.00;;;5.70;99.90;;;;;;5053490;28;20037;-69
2022/12/01 01:11:19;;;;;;;31.38;10.82;;;5.80;99.90;;;;;;5036026;28;20051;-68
2022/12/01 01:13:46;;;;;;;30.80;10.88;;;5.80;99.90;;;;;;5053238;28;20475;-68
2022/12/01 01:16:20;;;;;;;33.13;11.77;;;5.80;99.90;;;;;;5053387;28;20053;-68
2022/12/01 01:18:47;;;;;;;33.13;11.98;;;5.80;99.90;;;;;;5053932;28;20037;-68
2022/12/01 01:21:16;;;;;;;29.42;11.70;;;5.80;99.90;;;;;;5053324;28;20044;-68
2022/12/01 01:23:42;;;;;;;36.55;13.48;;;5.70;99.90;;;;;;5053306;28;20037;-68
2022/12/01 01:26:16;;;;;;;28.05;12.07;;;5.80;99.90;;;;;;5053608;28;20128;-69
2022/12/01 01:28:42;;;;;;;31.08;12.95;;;5.80;99.90;;;;;;5053281;28;20033;-69
2022/12/01 01:31:13;;;;;;;42.65;13.23;;;5.70;99.90;;;;;;5019272;28;20056;-69
2022/12/01 01:33:39;;;;;;;35.40;12.30;;;5.70;99.90;;;;;;5053177;28;20037;-68
2022/12/01 01:36:06;;;;;;;35.65;13.25;;;5.70;99.90;;;;;;5053140;28;20579;-68
2022/12/01 01:38:34;;;;;;;30.60;12.27;;;5.80;99.90;;;;;;5035540;28;20049;-68
2022/12/01 01:41:01;;;;;;;35.00;11.73;;;5.80;99.90;;;;;;5053033;28;20537;-68
2022/12/01 01:43:57;;;;;;;41.80;14.32;;;5.70;99.90;;;;;;5035434;28;20175;-68
2022/12/01 01:46:29;;;;;;;32.83;12.10;;;5.80;99.90;;;;;;5040666;28;20467;-68
2022/12/01 01:48:59;;;;;;;36.28;12.10;;;5.80;99.90;;;;;;5053037;28;20073;-68
2022/12/01 01:51:32;;;;;;;34.80;12.48;;;5.70;99.90;;;;;;5052937;28;20040;-68
2022/12/01 01:54:05;;;;;;;37.72;12.82;;;5.80;99.90;;;;;;5052889;28;20076;-68
2022/12/01 01:56:31;;;;;;;31.85;10.88;;;5.80;99.90;;;;;;5052786;28;20041;-68
2022/12/01 01:58:59;;;;;;;33.83;13.00;;;5.70;99.90;;;;;;5052919;28;20040;-68
2022/12/01 02:01:25;;;;;;;30.42;12.15;;;5.70;99.90;;;;;;5052900;28;20040;-68
2022/12/01 02:03:56;;;;;;;30.08;11.60;;;5.80;99.90;;;;;;5052786;28;20039;-68
2022/12/01 02:06:23;;;;;;;38.63;12.50;;;5.70;99.90;;;;;;5035949;28;20048;-68
2022/12/01 02:08:49;;;;;;;28.52;12.27;;;5.70;99.90;;;;;;5052839;28;20105;-69
2022/12/01 02:11:22;;;;;;;32.10;13.10;;;5.70;99.90;;;;;;5053830;28;20396;-68
2022/12/01 02:14:25;;;;;;;33.00;12.45;;;5.70;99.90;;;;;;5056570;28;20051;-68
2022/12/01 02:20:59;;;;;;;33.63;12.68;;;5.70;99.90;;;;;;5287959;22;20170;-76
2022/12/01 02:23:58;;;;;;;29.55;12.10;;;5.70;99.90;;;;;;5022178;28;20158;-75
2022/12/01 02:26:46;;;;;;;32.17;12.35;;;5.70;99.90;;;;;;5038356;28;20037;-75
2022/12/01 02:29:54;;;;;;;35.13;13.32;;;5.80;99.90;;;;;;5022359;28;20044;-75
2022/12/01 02:32:27;;;;;;;42.40;12.70;;;5.70;99.90;;;;;;5022253;28;20037;-76
2022/12/01 02:35:10;;;;;;;32.17;13.05;;;5.70;99.90;;;;;;5021946;28;20501;-76
2022/12/01 02:38:07;;;;;;;29.52;12.18;;;5.70;99.90;;;;;;5038550;28;20550;-76
2022/12/01 02:40:52;;;;;;;30.73;12.75;;;5.70;99.90;;;;;;5034019;28;20041;-76
2022/12/01 02:43:27;;;;;;;42.00;13.65;;;5.70;99.90;;;;;;5021848;28;20227;-75
2022/12/01 02:46:19;;;;;;;34.92;13.32;;;5.70;99.90;;;;;;5038307;28;20055;-76
2022/12/01 02:48:50;;;;;;;39.53;13.75;;;5.70;99.90;;;;;;5038415;28;20052;-75
2022/12/01 02:51:27;;;;;;;38.00;13.95;;;5.70;99.90;;;;;;5038082;28;20041;-76
2022/12/01 02:53:59;;;;;;;32.05;12.35;;;5.70;99.90;;;;;;5054398;28;20056;-76
2022/12/01 02:56:26;;;;;;;32.28;13.10;;;5.70;99.90;;;;;;5038103;28;20037;-76
2022/12/01 02:58:52;;;;;;;29.88;12.65;;;5.70;99.90;;;;;;5021290;28;20047;-76
2022/12/01 03:01:57;;;;;;;37.38;13.10;;;5.70;99.90;;;;;;5038094;28;20079;-75
2022/12/01 03:05:02;;;;;;;35.63;13.18;;;5.70;99.90;;;;;;4961987;28;20053;-75
2022/12/01 03:08:02;;;;;;;32.25;12.32;;;5.70;99.90;;;;;;5010898;28;20056;-75
2022/12/01 03:10:35;;;;;;;31.33;12.67;;;5.70;99.90;;;;;;5021551;28;20552;-75
2022/12/01 03:13:10;;;;;;;40.60;13.25;;;5.70;99.90;;;;;;5021408;28;20040;-75
2022/12/01 03:15:47;;;;;;;39.30;13.77;;;5.70;99.90;;;;;;5021052;28;20033;-76
2022/12/01 03:18:20;;;;;;;38.03;13.55;;;5.70;99.90;;;;;;5037713;28;20037;-75
2022/12/01 03:21:06;;;;;;;35.47;13.68;;;5.70;99.90;;;;;;5020759;28;20132;-76
2022/12/01 03:23:37;;;;;;;39.92;13.98;;;5.70;99.90;;;;;;5020837;28;20052;-75
2022/12/01 03:26:07;;;;;;;39.72;13.93;;;5.70;99.90;;;;;;5037675;28;20041;-75
2022/12/01 03:28:57;;;;;;;40.35;14.13;;;5.60;99.90;;;;;;5021003;28;20055;-75
2022/12/01 03:31:30;;;;;;;34.05;14.60;;;5.70;99.90;;;;;;5037454;28;20395;-75
2022/12/01 03:34:31;;;;;;;32.13;12.30;;;5.70;99.90;;;;;;5020809;28;20044;-75
2022/12/01 03:37:03;;;;;;;35.45;14.00;;;5.60;99.90;;;;;;5037754;28;20049;-75
2022/12/01 03:39:34;;;;;;;35.47;13.88;;;5.60;99.90;;;;;;5020862;28;20098;-75
2022/12/01 03:42:12;;;;;;;;;;;5.80;99.90;;;;;;5021330;28;20040;-76
2022/12/01 03:44:55;;;;;;;32.97;13.07;;;5.60;99.90;;;;;;5037220;28;20013;-75
2022/12/01 03:47:31;;;;;;;39.63;13.55;;;5.60;99.90;;;;;;5037066;28;20041;-75
2022/12/01 03:49:59;;;;;;;40.28;13.43;;;5.60;99.90;;;;;;5020886;28;20041;-75
2022/12/01 03:53:09;;;;;;;39.75;14.15;;;5.60;99.90;;;;;;5004088;28;20033;-76
2022/12/01 03:55:42;;;;;;;45.97;14.75;;;5.60;99.90;;;;;;5019560;28;20403;-76
2022/12/01 03:58:15;;;;;;;36.15;13.80;;;5.80;99.90;;;;;;5037017;28;20056;-76
2022/12/01 04:00:45;;;;;;;34.50;13.18;;;5.60;99.90;;;;;;5036651;28;20045;-76
2022/12/01 04:03:18;;;;;;;30.05;12.70;;;5.60;99.90;;;;;;5020916;28;20041;-76
2022/12/01 04:05:44;;;;;;;33.95;13.88;;;5.60;99.90;;;;;;5036572;28;20102;-76
2022/12/01 04:08:11;;;;;;;46.15;15.43;;;5.60;99.90;;;;;;5020444;28;20044;-76
2022/12/01 04:10:40;;;;;;;40.50;13.95;;;5.60;99.90;;;;;;5003993;28;20041;-76
2022/12/01 04:13:14;;;;;;;35.78;13.68;;;5.60;99.90;;;;;;5020316;28;20040;-76
2022/12/01 04:15:41;;;;;;;29.98;14.57;;;5.50;99.90;;;;;;4989785;28;20033;-76
2022/12/01 04:18:07;;;;;;;43.42;14.68;;;5.50;99.90;;;;;;5004018;28;20037;-76
2022/12/01 04:20:33;;;;;;;41.55;13.75;;;5.50;99.90;;;;;;5036238;28;20562;-76
2022/12/01 04:22:59;;;;;;;33.10;14.35;;;5.60;99.90;;;;;;5020061;28;20051;-76
2022/12/01 04:25:27;;;;;;;36.03;13.65;;;5.50;99.90;;;;;;5020101;28;20043;-76
2022/12/01 04:27:54;;;;;;;37.58;13.57;;;5.50;99.90;;;;;;4988276;28;20041;-76
2022/12/01 04:30:21;;;;;;;43.85;14.25;;;5.50;99.90;;;;;;5019940;28;20087;-76
2022/12/01 04:32:47;;;;;;;41.78;14.98;;;5.50;99.90;;;;;;5020005;28;20037;-76
2022/12/01 04:35:14;;;;;;;43.00;13.57;;;5.50;99.90;;;;;;5035184;28;20495;-76
2022/12/01 04:37:40;;;;;;;39.15;14.63;;;5.60;99.90;;;;;;5019737;28;20045;-76
2022/12/01 04:40:10;;;;;;;47.30;14.55;;;5.50;99.90;;;;;;5019716;28;20099;-76
2022/12/01 04:42:36;;;;;;;38.25;14.13;;;5.50;99.90;;;;;;5019852;28;20033;-76
2022/12/01 04:45:02;;;;;;;37.58;13.63;;;5.50;99.90;;;;;;5035793;28;20106;-76
2022/12/01 04:47:29;;;;;;;42.53;14.35;;;5.50;99.90;;;;;;5019695;28;20584;-76
2022/12/01 04:49:55;;;;;;;34.85;13.27;;;5.50;99.90;;;;;;5003296;28;20048;-76
2022/12/01 04:52:22;;;;;;;45.80;14.18;;;5.50;99.90;;;;;;5019627;28;20558;-76
2022/12/01 04:54:49;;;;;;;51.17;15.60;;;5.50;99.90;;;;;;4987188;28;20133;-76
2022/12/01 04:57:16;;;;;;;34.15;13.88;;;5.50;99.90;;;;;;5019406;28;20499;-76
2022/12/01 04:59:42;;;;;;;40.20;14.63;;;5.50;99.90;;;;;;5019357;28;20032;-76
2022/12/01 05:02:08;;;;;;;41.17;13.07;;;5.50;99.90;;;;;;5019467;28;20041;-76
2022/12/01 05:04:37;;;;;;;40.35;13.70;;;5.50;99.90;;;;;;5035741;28;20086;-76
2022/12/01 05:07:04;;;;;;;35.20;13.27;;;5.50;99.90;;;;;;5019766;28;20399;-76
2022/12/01 05:09:30;;;;;;;36.00;14.15;;;5.50;99.90;;;;;;5019278;28;20041;-76
2022/12/01 05:11:57;;;;;;;48.33;15.40;;;5.50;99.90;;;;;;5035739;28;20037;-76
2022/12/01 05:14:23;;;;;;;38.65;14.70;;;5.50;99.90;;;;;;5002855;28;20502;-76
2022/12/01 05:16:49;;;;;;;41.60;15.57;;;5.50;99.90;;;;;;5002900;28;20044;-75
2022/12/01 05:22:01;;;;;;;46.88;14.93;;;5.50;99.90;;;;;;5021836;28;20049;-76
2022/12/01 05:24:28;;;;;;;35.90;13.98;;;5.50;99.90;;;;;;5019150;28;20511;-76
2022/12/01 05:26:55;;;;;;;45.92;13.77;;;5.50;99.90;;;;;;5002708;28;20036;-76
2022/12/01 05:29:22;;;;;;;52.20;17.02;;;5.50;99.90;;;;;;4986708;28;20045;-76
2022/12/01 05:31:48;;;;;;;41.97;14.70;;;5.50;99.90;;;;;;5002855;28;20041;-76
2022/12/01 05:34:14;;;;;;;39.38;15.13;;;5.50;99.90;;;;;;5018760;28;20049;-76
2022/12/01 05:36:40;;;;;;;44.70;14.82;;;5.50;99.90;;;;;;5002507;28;20044;-76
2022/12/01 05:39:07;;;;;;;40.55;15.43;;;5.50;99.90;;;;;;5002641;28;20123;-75
2022/12/01 05:41:33;;;;;;;37.95;14.98;;;5.50;99.90;;;;;;5002914;28;20059;-76
2022/12/01 05:44:00;;;;;;;37.70;14.68;;;5.50;99.90;;;;;;5019229;28;20040;-74
2022/12/01 05:46:27;;;;;;;36.13;14.73;;;5.50;99.90;;;;;;5035215;28;20502;-77
2022/12/01 05:48:53;;;;;;;41.38;14.32;;;5.50;99.90;;;;;;5003542;28;20079;-75
2022/12/01 05:51:20;;;;;;;42.17;14.93;;;5.50;99.90;;;;;;5003232;28;20049;-74
2022/12/01 05:53:46;;;;;;;41.00;14.63;;;5.50;99.90;;;;;;5002360;28;20029;-74
2022/12/01 05:56:13;;;;;;;48.33;15.23;;;5.50;99.90;;;;;;5035092;28;20044;-75
2022/12/01 05:58:40;;;;;;;43.92;14.50;;;5.50;99.90;;;;;;5035098;28;20487;-75
2022/12/01 06:01:06;;;;;;;36.92;14.80;;;5.50;99.90;;;;;;5018421;28;20041;-75
2022/12/01 06:03:32;;;;;;;37.90;13.93;;;5.50;99.90;;;;;;5018769;28;20041;-75
2022/12/01 06:05:58;;;;;;;34.88;14.50;;;5.50;99.90;;;;;;5018805;28;20076;-76
2022/12/01 06:08:24;;;;;;;40.05;14.43;;;5.60;99.90;;;;;;5034689;28;20120;-76
2022/12/01 06:10:51;;;;;;;35.60;14.57;;;5.60;99.90;;;;;;5018601;28;20494;-76
2022/12/01 06:13:17;;;;;;;35.95;13.20;;;5.60;99.90;;;;;;5018545;28;20095;-76
2022/12/01 06:16:04;;;;;;;37.05;14.15;;;5.50;99.90;;;;;;5002125;28;20460;-76
2022/12/01 06:18:34;;;;;;;43.60;13.45;;;5.60;99.90;;;;;;5004642;28;20043;-76
2022/12/01 06:21:00;;;;;;;49.85;15.75;;;5.50;99.90;;;;;;5034554;28;20049;-75
2022/12/01 06:23:26;;;;;;;42.47;12.75;;;5.60;99.90;;;;;;5018388;28;20037;-73
2022/12/01 06:25:51;;;;;;;36.30;12.68;;;5.60;99.90;;;;;;5018395;28;20044;-73
2022/12/01 06:28:17;;;;;;;37.53;14.52;;;5.50;99.90;;;;;;5034643;28;20045;-74
2022/12/01 06:30:44;;;;;;;36.88;12.55;;;5.50;99.90;;;;;;5018297;28;20114;-75
2022/12/01 06:33:10;;;;;;;43.42;13.95;;;5.60;99.90;;;;;;5034761;28;20045;-74
2022/12/01 06:35:36;;;;;;;35.58;13.63;;;5.50;99.90;;;;;;5018351;28;20044;-74
2022/12/01 06:38:02;;;;;;;41.92;13.57;;;5.50;99.90;;;;;;5034270;28;20135;-75
2022/12/01 06:40:28;;;;;;;35.92;13.27;;;5.50;99.90;;;;;;5034703;28;20033;-83
2022/12/01 06:42:53;;;;;;;36.42;14.48;;;5.50;99.90;;;;;;5017959;28;20036;-77
2022/12/01 06:45:19;;;;;;;42.33;14.95;;;5.50;99.90;;;;;;5018094;28;20406;-76
2022/12/01 06:47:47;;;;;;;44.03;13.50;;;5.30;99.90;;;;;;5017991;28;20045;-75
2022/12/01 06:50:13;;;;;;;28.90;12.40;;;5.50;99.90;;;;;;5034321;28;20055;-74
2022/12/01 06:52:39;;;;;;;38.03;13.98;;;5.50;99.90;;;;;;5034219;28;20045;-75
2022/12/01 06:55:05;;;;;;;40.92;13.02;;;5.50;99.90;;;;;;5034388;28;20043;-76
2022/12/01 06:57:31;;;;;;;43.88;15.18;;;5.50;99.90;;;;;;5035845;28;20037;-73
2022/12/01 06:59:57;;;;;;;46.53;14.38;;;5.50;99.90;;;;;;5021230;28;20095;-74
2022/12/01 07:02:23;;;;;;;33.28;12.38;;;5.50;99.90;;;;;;5021260;28;20048;-75
2022/12/01 07:04:48;;;;;;;35.90;13.32;;;5.50;99.90;;;;;;5022000;28;20049;-76
2022/12/01 07:07:16;;;;;;;44.80;14.60;;;5.50;99.90;;;;;;5021507;28;20069;-74
2022/12/01 07:09:42;;;;;;;35.28;12.43;;;5.50;99.90;;;;;;5021433;28;20045;-75
2022/12/01 07:12:08;;;;;;;40.13;14.10;;;5.50;99.90;;;;;;5021359;28;20505;-77
2022/12/01 07:14:34;;;;;;;34.45;12.88;;;5.60;99.90;;;;;;5021432;28;20029;-76
2022/12/01 07:17:03;;;;;;;36.17;13.75;;;5.50;99.90;;;;;;5021713;28;20090;-76
2022/12/01 07:19:29;;;;;;;36.60;14.50;;;5.50;99.90;;;;;;4988760;28;20139;-76
2022/12/01 07:21:55;;;;;;;37.65;13.70;;;5.50;99.90;;;;;;5037385;28;20052;-76
2022/12/01 07:24:20;;;;;;;33.42;12.95;;;5.60;99.90;;;;;;5037581;28;20064;-75
2022/12/01 07:26:47;;;;;;;41.05;14.63;;;5.50;99.90;;;;;;5021146;28;20114;-76
2022/12/01 07:29:12;;;;;;;36.97;12.38;;;5.50;99.90;;;;;;5020854;28;20119;-76
2022/12/01 07:31:38;;;;;;;26.48;11.68;;;5.50;99.90;;;;;;5037118;28;20609;-73
2022/12/01 07:34:05;;;;;;;36.45;13.88;;;5.50;99.90;;;;;;5020911;28;20052;-76
2022/12/01 07:36:31;;;;;;;32.50;12.23;;;5.60;99.90;;;;;;5037342;28;20506;-75
2022/12/01 07:38:56;;;;;;;33.65;12.38;;;5.50;99.90;;;;;;5020777;28;20547;-74
2022/12/01 07:41:23;;;;;;;32.75;12.88;;;5.50;99.90;;;;;;5004340;28;20128;-75
2022/12/01 07:43:50;;;;;;;38.55;12.27;;;5.50;99.90;;;;;;5004524;28;20048;-78
2022/12/01 07:46:19;;;;;;;43.92;13.20;;;5.60;99.90;;;;;;5037329;28;20047;-74
2022/12/01 07:48:46;;;;;;;38.50;15.02;;;5.60;99.90;;;;;;5036328;28;20044;-74
2022/12/01 07:51:17;;;;;;;39.92;13.52;;;5.60;99.90;;;;;;5019896;28;20055;-75
2022/12/01 07:53:45;;;;;;;34.75;12.45;;;5.60;99.90;;;;;;5036157;28;20372;-74
2022/12/01 07:56:12;;;;;;;41.78;12.75;;;5.60;99.90;;;;;;5019509;28;20545;-74
2022/12/01 07:58:38;;;;;;;32.55;12.70;;;5.60;99.90;;;;;;5019736;28;20095;-74
2022/12/01 08:01:25;;;;;;;33.13;12.60;;;5.60;99.90;;;;;;5003203;28;20072;-74
2022/12/01 08:03:54;;;;;;;32.00;12.45;;;5.60;99.90;;;;;;5034634;28;20037;-74
2022/12/01 08:06:26;;;;;;;31.45;10.75;;;5.60;99.90;;;;;;5019078;28;20128;-75
2022/12/01 08:08:52;;;;;;;42.97;13.93;;;5.70;99.90;;;;;;5035740;28;20059;-76
2022/12/01 08:11:21;;;;;;;51.50;13.65;;;5.70;99.90;;;;;;5019049;28;20077;-75
2022/12/01 08:13:48;;;;;;;33.47;12.25;;;5.70;99.90;;;;;;5035448;28;20127;-75
2022/12/01 08:16:18;;;;;;;34.63;12.50;;;5.70;99.90;;;;;;5035241;28;20060;-75
2022/12/01 08:18:46;;;;;;;34.28;13.43;;;5.70;99.90;;;;;;5035815;28;20103;-79
2022/12/01 08:21:15;;;;;;;37.50;16.05;;;5.70;99.90;;;;;;5015442;28;20498;-75
2022/12/01 08:23:43;;;;;;;42.80;15.77;;;5.70;99.90;;;;;;4999442;28;20111;-75
2022/12/01 08:26:15;;;;;;;40.03;14.30;;;5.80;99.90;;;;;;4999332;28;20038;-75
2022/12/01 08:28:42;;;;;;;37.15;13.52;;;5.70;99.90;;;;;;4999205;28;20119;-75
2022/12/01 08:31:20;;;;;;;38.65;14.75;;;5.80;99.90;;;;;;4999299;28;20063;-76
2022/12/01 08:33:47;;;;;;;40.90;13.95;;;5.80;99.90;;;;;;4999177;28;20094;-76
2022/12/01 08:36:14;;;;;;;42.47;14.13;;;5.80;99.90;;;;;;5015161;28;20480;-75
2022/12/01 08:38:45;;;;;;;29.38;13.68;;;5.80;99.90;;;;;;5015526;28;20377;-76
2022/12/01 08:41:12;;;;;;;28.15;11.90;;;5.90;99.90;;;;;;4999262;28;20029;-76
2022/12/01 08:43:41;;;;;;;29.65;12.25;;;5.90;99.90;;;;;;4999164;28;20313;-75
2022/12/01 08:46:08;;;;;;;33.40;12.68;;;5.90;99.90;;;;;;5015429;28;20060;-75
2022/12/01 08:48:35;;;;;;;31.35;12.68;;;6.00;99.90;;;;;;5015415;28;20041;-75
2022/12/01 08:51:07;;;;;;;27.58;13.07;;;6.00;99.90;;;;;;5015394;28;20172;-75
2022/12/01 08:53:36;;;;;;;42.28;12.55;;;6.00;99.90;;;;;;4999310;28;20044;-75
2022/12/01 08:56:12;;;;;;;34.42;11.98;;;6.00;99.90;;;;;;4998674;28;20830;-75
2022/12/01 08:58:38;;;;;;;39.55;12.65;;;6.00;99.90;;;;;;5015432;28;20045;-74
2022/12/01 09:01:08;;;;;;;32.58;13.88;;;6.00;99.90;;;;;;5015152;28;20030;-75
2022/12/01 09:03:36;;;;;;;29.20;13.02;;;6.10;99.90;;;;;;5032443;28;20041;-74
2022/12/01 09:06:12;;;;;;;33.20;12.93;;;6.10;99.90;;;;;;4998597;28;20037;-75
2022/12/01 09:08:40;;;;;;;29.80;12.32;;;6.10;99.90;;;;;;4998857;28;20041;-75
2022/12/01 09:11:15;;;;;;;31.80;12.13;;;6.10;99.90;;;;;;4998872;28;20041;-75
2022/12/01 09:13:43;;;;;;;34.30;12.02;;;6.10;99.90;;;;;;5014941;28;20099;-74
2022/12/01 09:16:14;;;;;;;36.35;13.00;;;6.20;99.90;;;;;;4998366;28;20128;-75
2022/12/01 09:18:41;;;;;;;34.28;12.27;;;6.20;99.90;;;;;;5014892;28;20042;-74
2022/12/01 09:21:12;;;;;;;32.60;12.35;;;6.20;99.90;;;;;;5030367;28;20041;-75
2022/12/01 09:23:39;;;;;;;37.03;13.73;;;6.20;99.90;;;;;;5018197;28;20041;-75
2022/12/01 09:26:06;;;;;;;26.33;11.05;;;6.30;99.90;;;;;;5034656;28;20475;-75
2022/12/01 09:28:32;;;;;;;37.50;13.23;;;6.30;99.90;;;;;;5034162;28;20041;-75
2022/12/01 09:31:04;;;;;;;42.42;12.38;;;6.30;99.90;;;;;;5001855;28;20045;-75
2022/12/01 09:33:31;;;;;;;32.05;11.95;;;6.40;99.90;;;;;;5018062;28;20586;-75
2022/12/01 09:35:59;;;;;;;32.72;12.68;;;6.30;99.90;;;;;;5034122;28;20127;-75
2022/12/01 09:38:27;;;;;;;31.08;11.60;;;6.40;99.90;;;;;;5018077;28;20041;-75
2022/12/01 09:40:55;;;;;;;30.10;12.77;;;6.40;99.90;;;;;;5034064;28;20510;-75
2022/12/01 09:43:31;;;;;;;30.83;11.25;;;6.40;99.90;;;;;;5034301;28;20048;-75
2022/12/01 09:46:01;;;;;;;34.38;12.35;;;6.40;99.90;;;;;;5033988;28;20084;-75
2022/12/01 09:48:44;;;;;;;29.95;10.98;;;6.50;99.90;;;;;;5017770;28;20051;-75
2022/12/01 09:51:17;;;;;;;27.98;11.52;;;6.60;99.90;;;;;;5017867;28;20041;-75
2022/12/01 09:53:44;;;;;;;30.63;11.23;;;6.60;99.90;;;;;;5017732;28;20036;-75
2022/12/01 09:56:28;;;;;;;29.27;11.65;;;6.60;99.90;;;;;;5017296;28;20037;-76
2022/12/01 09:58:57;;;;;;;30.58;10.60;;;6.60;99.90;;;;;;5017557;28;20514;-75
2022/12/01 10:01:45;;;;;;;33.75;11.60;;;6.60;99.90;;;;;;5017369;28;20123;-75
2022/12/01 10:04:19;;;;;;;30.60;11.35;;;6.60;99.90;;;;;;5018040;28;20144;-75
2022/12/01 10:06:54;;;;;;;32.25;11.73;;;6.70;99.90;;;;;;5033918;28;20040;-75
2022/12/01 10:09:54;;;;;;;31.95;11.35;;;6.70;99.90;;;;;;5017703;28;20386;-75
2022/12/01 10:12:26;;;;;;;31.40;11.80;;;6.70;99.90;;;;;;5034017;28;20064;-75
2022/12/01 10:15:00;;;;;;;35.88;11.80;;;6.80;99.90;;;;;;5033868;28;20174;-75
2022/12/01 10:17:51;;;;;;;32.20;10.95;;;6.80;99.90;;;;;;5033940;28;20056;-75
2022/12/01 10:20:38;;;;;;;31.27;10.68;;;6.90;99.90;;;;;;5033831;28;20178;-74
2022/12/01 10:23:28;;;;;;;30.45;10.68;;;6.90;99.90;;;;;;5033964;28;20496;-75
2022/12/01 10:25:54;;;;;;;36.20;11.88;;;6.90;99.90;;;;;;5033711;28;20041;-74
2022/12/01 10:28:24;;;;;;;35.13;11.70;;;6.90;99.90;;;;;;5017703;28;20041;-74
2022/12/01 10:30:56;;;;;;;34.97;11.65;;;6.90;99.90;;;;;;5033933;28;20033;-74
2022/12/01 10:33:46;;;;;;;33.15;10.77;;;6.90;99.90;;;;;;5036751;28;20117;-75
2022/12/01 10:36:12;;;;;;;29.42;10.70;;;6.90;99.90;;;;;;5037293;28;20033;-75
2022/12/01 10:38:39;;;;;;;24.60;10.63;;;6.90;99.90;;;;;;5021006;28;20048;-75
2022/12/01 10:41:11;;;;;;;29.40;11.90;;;6.90;99.90;;;;;;5021089;28;20033;-75
2022/12/01 10:43:46;;;;;;;32.05;12.55;;;6.90;99.90;;;;;;5037471;28;20407;-74
2022/12/01 10:46:28;;;;;;;29.05;11.55;;;6.90;99.90;;;;;;5020787;28;20045;-75
2022/12/01 10:48:57;;;;;;;25.95;9.93;;;6.90;99.90;;;;;;5037306;28;20047;-74
2022/12/01 10:51:25;;;;;;;27.08;11.38;;;6.90;99.90;;;;;;5037447;28;20563;-74
2022/12/01 10:54:05;;;;;;;27.30;10.63;;;7.00;99.90;;;;;;5004635;28;20056;-74
2022/12/01 10:56:33;;;;;;;31.52;11.68;;;6.90;99.90;;;;;;5037177;28;20053;-74
2022/12/01 10:59:14;;;;;;;36.45;11.25;;;6.90;99.90;;;;;;5020972;28;20036;-74
2022/12/01 11:01:47;;;;;;;30.75;11.85;;;6.90;99.90;;;;;;5037218;28;20037;-74
2022/12/01 11:05:03;;;;;;;30.30;11.20;;;6.90;99.90;;;;;;5054867;28;20041;-74
2022/12/01 11:07:41;;;;;;;25.50;12.25;;;6.90;99.90;;;;;;5017671;28;20526;-75
2022/12/01 11:10:19;;;;;;;28.73;10.57;;;6.90;99.90;;;;;;5037035;28;20040;-74
2022/12/01 11:13:12;;;;;;;31.98;12.00;;;6.90;99.90;;;;;;5036942;28;20033;-74
2022/12/01 11:15:48;;;;;;;26.05;10.85;;;6.90;99.90;;;;;;5036304;28;20060;-75
2022/12/01 11:18:32;;;;;;;22.77;10.57;;;6.90;99.90;;;;;;5020453;28;20041;-74
2022/12/01 11:21:05;;;;;;;24.92;10.45;;;7.00;99.90;;;;;;5019840;28;20052;-74
2022/12/01 11:23:35;;;;;;;42.45;11.13;;;7.00;99.90;;;;;;5037035;28;20052;-75
2022/12/01 11:26:13;;;;;;;30.92;9.98;;;7.00;99.90;;;;;;5004452;28;20200;-74
2022/12/01 11:29:00;;;;;;;31.10;10.45;;;7.00;99.90;;;;;;5036880;28;20106;-75
2022/12/01 11:31:49;;;;;;;20.40;9.73;;;7.00;99.90;;;;;;5020444;28;20044;-75
2022/12/01 11:34:25;;;;;;;29.23;10.90;;;7.00;99.90;;;;;;5036873;28;20107;-74
2022/12/01 11:36:57;;;;;;;26.42;10.60;;;7.00;99.90;;;;;;5036710;28;20040;-76
2022/12/01 11:39:30;;;;;;;32.20;10.88;;;6.90;99.90;;;;;;5036695;28;20123;-76
2022/12/01 11:42:00;;;;;;;27.65;11.70;;;7.00;99.90;;;;;;5036560;28;20585;-75
2022/12/01 11:44:27;;;;;;;26.58;11.07;;;7.00;99.90;;;;;;5035927;28;20123;-75
2022/12/01 11:46:54;;;;;;;27.20;11.07;;;8.80;99.90;;;;;;4987747;28;20047;-75
2022/12/01 11:49:27;;;;;;;25.17;12.02;;;6.90;99.90;;;;;;5036463;28;20041;-75
2022/12/01 11:51:54;;;;;;;18.83;9.60;;;6.90;99.90;;;;;;5036350;28;20395;-74
2022/12/01 11:54:23;;;;;;;30.45;11.30;;;7.00;99.90;;;;;;5036335;28;20044;-75
2022/12/01 11:56:51;;;;;;;27.13;10.85;;;7.00;99.90;;;;;;5019837;28;20076;-76
2022/12/01 11:59:22;;;;;;;24.00;9.40;;;7.00;99.90;;;;;;5019801;28;20505;-75
2022/12/01 12:02:33;;;;;;;25.83;11.27;;;7.00;99.90;;;;;;5036076;28;20120;-77
2022/12/01 12:05:26;;;;;;;30.15;11.52;;;6.90;99.90;;;;;;5013589;28;20388;-76
2022/12/01 12:08:04;;;;;;;22.83;10.27;;;6.90;99.90;;;;;;4997057;28;20617;-74
2022/12/01 12:10:39;;;;;;;25.75;10.13;;;7.00;99.90;;;;;;5035972;28;20041;-73
2022/12/01 12:13:51;;;;;;;25.48;10.73;;;7.00;99.90;;;;;;5019438;28;20045;-73
2022/12/01 12:16:30;;;;;;;23.92;10.43;;;7.10;99.90;;;;;;5035534;28;20033;-74
2022/12/01 12:19:18;;;;;;;25.02;10.45;;;7.20;99.90;;;;;;5035755;28;20095;-73
2022/12/01 12:22:10;;;;;;;32.75;10.65;;;7.20;99.90;;;;;;5018897;28;20484;-73
2022/12/01 12:24:36;;;;;;;;;;;7.20;99.90;;;;;;5036285;28;20052;-73
2022/12/01 12:27:12;;;;;;;29.05;9.40;;;7.10;99.90;;;;;;5035735;28;20326;-74
2022/12/01 12:30:15;;;;;;;25.48;9.73;;;7.10;99.90;;;;;;5035475;28;20048;-76
2022/12/01 12:33:03;;;;;;;28.48;11.02;;;7.00;99.90;;;;;;5018787;28;20053;-73
2022/12/01 12:35:31;;;;;;;29.63;10.25;;;7.00;99.90;;;;;;5035381;28;20040;-74
2022/12/01 12:38:20;;;;;;;24.17;11.15;;;6.90;99.90;;;;;;5035380;28;20133;-74
2022/12/01 12:41:01;;;;;;;21.13;9.77;;;7.00;99.90;;;;;;5018658;28;20134;-74
2022/12/01 12:43:36;;;;;;;26.98;10.32;;;7.00;99.90;;;;;;5035223;28;20391;-74
2022/12/01 12:46:35;;;;;;;23.30;8.98;;;7.00;99.90;;;;;;5018761;28;20044;-74
2022/12/01 12:49:20;;;;;;;26.52;11.10;;;6.90;99.90;;;;;;5002784;28;20399;-74
2022/12/01 12:52:17;;;;;;;22.75;9.57;;;6.90;99.90;;;;;;5035125;28;20072;-74
2022/12/01 12:55:02;;;;;;;29.85;10.30;;;6.90;99.90;;;;;;5034055;28;20462;-74
2022/12/01 12:57:45;;;;;;;22.02;10.23;;;6.90;99.90;;;;;;5018593;28;20423;-75
2022/12/01 13:00:24;;;;;;;24.50;10.10;;;6.80;99.90;;;;;;5018557;28;20047;-74
2022/12/01 13:03:22;;;;;;;23.30;10.90;;;6.80;99.90;;;;;;5018519;28;20438;-74
2022/12/01 13:06:12;;;;;;;24.30;11.18;;;6.80;99.90;;;;;;5035022;28;20535;-74
2022/12/01 13:08:51;;;;;;;33.20;10.60;;;6.80;99.90;;;;;;5034671;28;20127;-74
2022/12/01 13:11:45;;;;;;;27.23;11.15;;;6.80;99.90;;;;;;5034817;28;20048;-74
2022/12/01 13:14:18;;;;;;;25.73;11.27;;;6.80;99.90;;;;;;5034815;28;20529;-74